Flight Track Log - Related Links

Times and Time Zones

All times are in EDT time to prevent confusion due to time zone crossing. See the CTL312 flight status page for this flight to view local times or setup timezone preferences in your user account.

Time Position Orientation Groundspeed Altitude Reporting Facility
EDT Latitude Longitude Course Direction KTS MPH feet Rate Location/Type
Mon 09:37:20 PM 41.5253 -81.6758 346° North 122 140 1,000  Level Cleveland Center
Mon 09:38:21 PM 41.5606 -81.6875 346° North 153 176 2,000 545 Climbing Cleveland Center
Mon 09:39:21 PM 41.6042 -81.7133 336° Northwest 181 208 2,100 298 Climbing Cleveland Center
Mon 09:40:22 PM 41.6497 -81.7419 335° Northwest 176 203 2,600 492 Climbing Cleveland Center
Mon 09:41:23 PM 41.6658 -81.7978 291° West 159 183 3,100 545 Climbing Cleveland Center
Mon 09:42:23 PM 41.6819 -81.8592 289° West 167 192 3,700 496 Climbing Cleveland Center
Mon 09:43:24 PM 41.6958 -81.9153 288° West 160 184 4,100 595 Climbing Cleveland Center
Mon 09:44:24 PM 41.7056 -81.9736 283° West 159 183 4,900 694 Climbing Cleveland Center
Mon 09:45:25 PM 41.7175 -82.0242 288° West 149 171 5,500 590 Climbing Cleveland Center
Mon 09:46:26 PM 41.7314 -82.0800 288° West 156 180 6,100 298 Climbing Cleveland Center
Mon 09:47:26 PM 41.7431 -82.1389 285° West 162 186 6,100 50 Level Cleveland Center
Mon 09:48:27 PM 41.7567 -82.1975 287° West 165 190 6,200 -50 Climbing Cleveland Center
Mon 09:49:27 PM 41.7706 -82.2592 287° West 165 190 6,000 -50 Descending Cleveland Center
Mon 09:50:28 PM 41.7864 -82.3181 290° West 165 190 6,100 77 Climbing Cleveland Center
Mon 09:50:45 PM 41.7903 -82.3322 290° West 165 190 6,100  Level Cleveland Center
Mon 09:51:28 PM 41.7981 -82.3742 284° West 164 189 6,100  Level Cleveland Center
Mon 09:52:29 PM 41.8114 -82.4386 286° West 166 191 6,100  Level Cleveland Center
Mon 09:53:29 PM 41.8253 -82.4975 288° West 167 192 6,100  Level Cleveland Center
Mon 09:54:30 PM 41.8325 -82.5617 279° West 166 191 6,100 -49 Level Cleveland Center
Mon 09:55:31 PM 41.8458 -82.6208 287° West 169 194 6,000 -49 Descending Cleveland Center
Mon 09:56:32 PM 41.8808 -82.6581 322° Northwest 179 206 6,000 32 Level Cleveland Center
Mon 09:58:00 PM 41.9525 -82.6902 342° North  Level FlightAware Approximate
Mon 09:58:39 PM 41.9778 -82.7058 342° North 174 200 6,100  Level Cleveland Center
Mon 09:59:34 PM 42.0192 -82.7269 339° North 176 203 6,000  Descending Cleveland Center
Mon 10:00:41 PM 42.0686 -82.7508 340° North 173 199 6,100 47 Climbing Cleveland Center
Mon 10:01:42 PM 42.1142 -82.7747 339° North 174 200 6,100 -344 Level Cleveland Center
Mon 10:02:43 PM 42.1550 -82.8156 323° Northwest 189 217 5,400 -689 Descending Cleveland Center
Mon 10:03:44 PM 42.2000 -82.8564 326° Northwest 193 222 4,700 -672 Descending Cleveland Center
Mon 10:04:39 PM 42.2431 -82.8914 329° Northwest 188 216 4,100 -347 Descending Cleveland Center
Mon 10:05:45 PM 42.2839 -82.9322 324° Northwest 169 194 4,000 -45 Descending Cleveland Center
Mon 10:06:52 PM 42.3269 -82.9789 321° Northwest 169 194 4,000  Level Cleveland Center
Mon 10:07:53 PM 42.3658 -83.0142 326° Northwest 169 194 4,000  Level Cleveland Center
Mon 10:08:53 PM 42.4044 -83.0522 324° Northwest 168 193 4,000  Level Cleveland Center
Mon 10:09:48 PM 42.4392 -83.0844 326° Northwest 165 190 4,000 -207 Level Cleveland Center
Mon 10:10:49 PM 42.4781 -83.1253 322° Northwest 180 207 3,600 -347 Descending Cleveland Center
Mon 10:11:49 PM 42.5122 -83.1719 315° West 175 201 3,300 -283 Descending Cleveland Center
Mon 10:12:56 PM 42.5528 -83.2242 317° Northwest 178 205 3,000 -328 Descending Cleveland Center
Mon 10:13:57 PM 42.5872 -83.2708 315° West 179 206 2,600 -344 Descending Cleveland Center
Mon 10:14:58 PM 42.6194 -83.3172 313° West 167 192 2,300 -347 Descending Cleveland Center
Mon 10:15:58 PM 42.6494 -83.3667 310° West 170 196 1,900 -400 Descending Cleveland Center
Mon 10:17:00 PM 42.6500 -83.4167 304° West  Level FlightAware Approximate
Mon 10:24:00 PM 42.6656 -83.4205 304° West  Level Estimated
Mon 10:25:00 PM 42.6656 -83.4205 304° West  Level Estimated
Mon 10:26:00 PM 42.6656 -83.4205 304° West  Level Estimated

Login

Don't have an account? Register now (free) for customized features, flight alerts, and more!